Time;durP1;ratioP1;P1;durP2;ratioP2;P2;SDS_P1;SDS_P2;PMS_P1;PMS_P2;Temp;Humidity;BMP_temperature;BMP_pressure;BME280_temperature;BME280_humidity;BME280_pressure;Samples;Min_cycle;Max_cycle;Signal;HPM_P1;HPM_P2
2022/09/06 00:01:32;;;;;;;1.43;1.33;;;;;;;18.25;86.88;101739.03;5030917;28;20033;-69
2022/09/06 00:03:57;;;;;;;2.67;1.67;;;;;;;18.20;88.89;101728.59;5031537;28;20048;-71
2022/09/06 00:06:22;;;;;;;2.70;1.70;;;;;;;18.21;87.93;101729.47;5027790;28;20033;-69
2022/09/06 00:08:48;;;;;;;2.73;1.43;;;;;;;18.20;88.86;101725.00;5030186;28;20025;-69
2022/09/06 00:11:15;;;;;;;5.67;1.53;;;;;;;18.20;89.70;101739.69;5031055;28;20071;-69
2022/09/06 00:13:40;;;;;;;5.30;1.60;;;;;;;18.20;90.47;101741.63;5024020;28;20022;-69
2022/09/06 00:16:08;;;;;;;3.90;1.90;;;;;;;18.15;89.91;101739.53;5015890;28;20040;-69
2022/09/06 00:18:34;;;;;;;8.02;1.85;;;;;;;18.15;90.31;101738.69;5031906;28;20039;-69
2022/09/06 00:20:59;;;;;;;3.10;1.90;;;;;;;18.13;91.96;101743.59;5030785;28;20045;-69
2022/09/06 00:23:25;;;;;;;2.97;2.07;;;;;;;18.18;90.62;101741.00;5030239;28;20112;-69
2022/09/06 00:25:50;;;;;;;3.10;1.83;;;;;;;18.18;90.70;101741.00;5030938;28;20040;-70
2022/09/06 00:28:15;;;;;;;7.03;2.33;;;;;;;18.18;91.04;101746.53;5029959;28;20033;-71
2022/09/06 00:30:40;;;;;;;4.63;2.40;;;;;;;18.12;91.66;101753.84;5028606;28;20446;-71
2022/09/06 00:33:06;;;;;;;2.80;2.13;;;;;;;18.17;92.00;101751.25;5025407;28;20041;-71
2022/09/06 00:35:31;;;;;;;3.43;1.97;;;;;;;18.19;92.47;101753.81;5020426;28;20485;-70
2022/09/06 00:37:58;;;;;;;6.07;2.17;;;;;;;18.19;92.37;101762.97;5029329;28;20061;-70
2022/09/06 00:40:25;;;;;;;2.33;2.13;;;;;;;18.18;93.23;101755.72;5020233;28;20065;-70
2022/09/06 00:42:50;;;;;;;2.42;2.03;;;;;;;18.18;93.25;101732.69;5020560;28;20030;-70
2022/09/06 00:45:17;;;;;;;3.67;2.60;;;;;;;18.25;92.72;101736.28;5030188;28;20033;-70
2022/09/06 00:47:43;;;;;;;2.55;2.35;;;;;;;18.18;92.83;101727.13;5014388;28;20045;-70
2022/09/06 00:50:12;;;;;;;2.38;2.17;;;;;;;18.15;93.97;101724.81;5019145;28;20033;-69
2022/09/06 00:52:38;;;;;;;7.57;2.22;;;;;;;18.10;93.82;101711.63;5030904;28;20037;-70
2022/09/06 00:55:04;;;;;;;;;;;;;;;18.08;94.05;101690.75;5014882;28;20034;-69
2022/09/06 00:57:31;;;;;;;2.35;1.60;;;;;;;18.06;91.83;101665.16;5024433;28;20020;-70
2022/09/06 00:59:56;;;;;;;;;;;;;;;18.09;89.68;101651.69;5031176;28;20098;-70
2022/09/06 01:02:21;;;;;;;4.75;2.50;;;;;;;18.02;90.13;101655.59;5031389;28;19921;-70
2022/09/06 01:04:48;;;;;;;3.00;2.37;;;;;;;18.08;89.88;101651.94;5029575;28;20025;-70
2022/09/06 01:07:44;;;;;;;3.95;2.20;;;;;;;18.07;90.34;101658.53;5029562;28;20132;-70
2022/09/06 01:10:27;;;;;;;4.82;2.67;;;;;;;18.01;90.34;101662.22;5018941;28;20130;-70
2022/09/06 01:13:16;;;;;;;5.68;2.85;;;;;;;17.90;91.05;101649.06;5021886;28;20018;-70
2022/09/06 01:16:12;;;;;;;3.00;2.05;;;;;;;17.86;91.91;101645.06;5029764;28;20044;-70
2022/09/06 01:19:09;;;;;;;3.38;2.35;;;;;;;17.73;92.37;101636.84;5030783;28;20038;-70
2022/09/06 01:21:42;;;;;;;3.70;2.28;;;;;;;17.68;92.53;101631.13;5019928;28;20072;-70
2022/09/06 01:24:37;;;;;;;4.43;2.90;;;;;;;17.61;93.14;101619.25;5023946;28;20034;-70
2022/09/06 01:27:36;;;;;;;3.95;2.88;;;;;;;17.52;93.06;101607.59;5016063;28;20037;-70
2022/09/06 01:30:07;;;;;;;5.03;2.60;;;;;;;17.42;93.39;101589.75;5029650;28;20065;-70
2022/09/06 01:33:06;;;;;;;4.20;2.88;;;;;;;17.38;94.16;101582.94;5029260;28;20040;-70
2022/09/06 01:35:37;;;;;;;;;;;;;;;17.42;92.82;101589.75;5030856;28;20043;-70
2022/09/06 01:38:03;;;;;;;3.45;2.25;;;;;;;17.35;93.29;101580.63;5027586;28;19917;-70
2022/09/06 01:40:29;;;;;;;3.60;3.30;;;;;;;17.29;92.87;101578.75;5029594;28;20396;-70
2022/09/06 01:42:56;;;;;;;5.60;2.83;;;;;;;17.28;92.35;101585.38;5029258;28;20033;-70
2022/09/06 01:45:31;;;;;;;5.85;2.78;;;;;;;17.18;92.95;101585.81;5029469;28;20034;-70
2022/09/06 01:48:08;;;;;;;3.17;2.88;;;;;;;17.20;93.55;101591.16;5026516;28;20160;-70
2022/09/06 01:50:44;;;;;;;4.20;2.90;;;;;;;17.14;93.38;101589.28;5010794;28;20120;-69
2022/09/06 01:53:20;;;;;;;3.10;2.88;;;;;;;17.16;94.09;101585.22;5032988;28;20030;-70
2022/09/06 01:56:04;;;;;;;4.22;2.90;;;;;;;17.26;93.18;101577.28;5030993;28;20439;-70
2022/09/06 01:58:36;;;;;;;8.48;2.90;;;;;;;17.30;93.80;101572.13;5033947;28;20043;-70
2022/09/06 02:01:13;;;;;;;6.40;2.80;;;;;;;17.33;93.37;101574.44;5030071;28;20021;-69
2022/09/06 02:03:56;;;;;;;;;;;;;;;17.37;93.21;101575.69;5026756;28;20037;-70
2022/09/06 02:06:27;;;;;;;4.40;2.95;;;;;;;17.30;92.06;101567.41;5031615;28;20036;-70
2022/09/06 02:09:02;;;;;;;3.47;2.88;;;;;;;17.21;93.20;101571.56;5032212;28;20036;-70
2022/09/06 02:11:32;;;;;;;4.70;3.35;;;;;;;17.19;93.41;101578.38;5031636;28;20030;-70
2022/09/06 02:14:03;;;;;;;4.28;2.90;;;;;;;17.10;93.83;101568.63;5031900;28;20444;-70
2022/09/06 02:16:33;;;;;;;8.10;3.00;;;;;;;17.08;93.91;101581.88;5018818;28;20032;-70
2022/09/06 02:19:05;;;;;;;5.90;3.17;;;;;;;17.03;93.82;101579.72;5032287;28;20046;-70
2022/09/06 02:21:35;;;;;;;4.25;2.95;;;;;;;16.98;93.41;101587.03;5032440;28;20026;-70
2022/09/06 02:24:06;;;;;;;4.72;3.60;;;;;;;16.84;94.32;101577.06;5030296;28;20465;-70
2022/09/06 02:26:36;;;;;;;4.22;3.38;;;;;;;16.90;94.36;101577.06;5027776;28;20524;-70
2022/09/06 02:29:02;;;;;;;3.95;3.15;;;;;;;16.90;93.63;101573.41;5033302;28;20037;-70
2022/09/06 02:31:32;;;;;;;6.07;3.30;;;;;;;16.88;94.66;101575.56;5028263;28;20512;-69
2022/09/06 02:33:59;;;;;;;5.35;3.30;;;;;;;16.85;93.41;101582.41;5032374;28;20037;-70
2022/09/06 02:36:24;;;;;;;7.00;3.58;;;;;;;16.89;94.36;101580.03;5013692;28;20105;-70
2022/09/06 02:38:50;;;;;;;4.23;3.83;;;;;;;16.87;94.51;101574.72;5029143;28;20556;-70
2022/09/06 02:41:21;;;;;;;4.83;3.57;;;;;;;16.82;94.40;101582.81;5013303;28;20025;-70
2022/09/06 02:43:47;;;;;;;8.18;4.05;;;;;;;16.83;94.23;101579.00;5021748;28;20074;-70
2022/09/06 02:46:12;;;;;;;6.75;4.20;;;;;;;16.93;94.27;101586.84;5032029;28;20064;-70
2022/09/06 02:48:37;;;;;;;5.27;4.17;;;;;;;17.11;92.58;101596.09;5032134;28;20040;-70
2022/09/06 02:51:04;;;;;;;8.30;4.77;;;;;;;17.10;92.26;101588.88;5031861;28;20104;-71
2022/09/06 02:53:30;;;;;;;6.85;4.63;;;;;;;17.14;92.78;101592.03;5030528;28;20362;-70
2022/09/06 02:55:56;;;;;;;10.85;4.82;;;;;;;17.08;92.38;101588.22;5031307;28;20044;-70
2022/09/06 02:58:23;;;;;;;9.23;4.45;;;;;;;17.16;91.38;101590.75;5031129;28;20369;-70
2022/09/06 03:00:49;;;;;;;7.80;4.95;;;;;;;17.11;91.59;101593.34;5026083;28;20056;-70
2022/09/06 03:03:14;;;;;;;7.53;4.70;;;;;;;17.10;91.88;101591.66;5014929;28;20149;-69
2022/09/06 03:05:40;;;;;;;6.40;5.15;;;;;;;17.09;91.83;101595.50;5012836;28;20033;-69
2022/09/06 03:08:05;;;;;;;8.03;5.60;;;;;;;17.05;92.67;101590.59;5027298;28;20132;-70
2022/09/06 03:10:30;;;;;;;7.73;4.77;;;;;;;16.97;93.02;101597.22;5032421;28;20037;-70
2022/09/06 03:12:57;;;;;;;6.53;5.13;;;;;;;16.98;94.11;101598.09;5030110;28;20038;-70
2022/09/06 03:15:22;;;;;;;10.88;5.35;;;;;;;17.04;93.48;101608.28;5031871;28;20038;-70
2022/09/06 03:17:47;;;;;;;10.60;5.53;;;;;;;17.18;92.65;101605.22;5025927;28;20037;-69
2022/09/06 03:20:13;;;;;;;8.67;5.67;;;;;;;17.16;91.69;101600.97;5027093;28;20121;-69
2022/09/06 03:22:39;;;;;;;7.67;4.93;;;;;;;17.13;91.33;101595.88;5027057;28;20053;-69
2022/09/06 03:25:06;;;;;;;8.15;5.22;;;;;;;17.01;92.81;101597.63;5031629;28;20033;-69
2022/09/06 03:27:32;;;;;;;6.68;5.50;;;;;;;16.98;94.19;101601.69;5027807;28;20510;-70
2022/09/06 03:29:57;;;;;;;8.97;4.93;;;;;;;16.95;94.25;101596.63;5024217;28;20022;-69
2022/09/06 03:32:22;;;;;;;12.70;5.30;;;;;;;16.91;93.77;101594.53;5031495;28;20033;-69
2022/09/06 03:34:48;;;;;;;9.60;5.70;;;;;;;16.98;94.23;101592.56;5028024;28;20385;-69
2022/09/06 03:37:13;;;;;;;10.37;5.20;;;;;;;16.97;94.29;101594.47;5027737;28;20033;-70
2022/09/06 03:39:38;;;;;;;6.13;5.37;;;;;;;16.97;94.14;101602.78;5031217;28;20025;-70
2022/09/06 03:42:04;;;;;;;6.73;5.00;;;;;;;17.00;94.54;101598.72;5030624;28;20439;-70
2022/09/06 03:44:29;;;;;;;6.20;5.13;;;;;;;16.95;94.90;101607.69;5024589;28;20032;-70
2022/09/06 03:46:55;;;;;;;8.43;4.93;;;;;;;16.98;94.73;101603.63;5029957;28;20093;-70
2022/09/06 03:49:20;;;;;;;6.37;5.70;;;;;;;17.02;94.41;101614.03;5019038;28;20040;-70
2022/09/06 03:51:45;;;;;;;9.73;5.43;;;;;;;17.08;94.46;101617.84;5022804;28;20133;-70
2022/09/06 03:54:10;;;;;;;6.97;5.37;;;;;;;17.09;94.22;101611.25;5027722;28;20025;-70
2022/09/06 03:56:36;;;;;;;7.87;5.83;;;;;;;17.12;94.64;101619.13;5011854;28;20120;-70
2022/09/06 03:59:01;;;;;;;8.73;5.63;;;;;;;17.12;95.04;101614.41;5021019;28;20071;-70
2022/09/06 04:01:27;;;;;;;8.50;5.07;;;;;;;17.12;95.25;101614.41;5027304;28;20404;-70
2022/09/06 04:03:52;;;;;;;8.33;5.40;;;;;;;17.12;94.36;101610.81;5012014;28;20026;-69
2022/09/06 04:06:18;;;;;;;8.67;5.03;;;;;;;17.08;95.28;101604.00;5025233;28;20103;-69
2022/09/06 04:08:43;;;;;;;9.27;5.60;;;;;;;17.05;95.08;101608.06;5024850;28;20427;-69
2022/09/06 04:11:09;;;;;;;8.87;5.23;;;;;;;17.02;94.70;101602.97;5022804;28;20274;-70
2022/09/06 04:13:35;;;;;;;8.40;5.90;;;;;;;17.01;94.94;101609.56;5026055;28;20033;-69
2022/09/06 04:16:01;;;;;;;10.27;5.85;;;;;;;17.07;94.36;101607.84;5025897;28;20033;-70
2022/09/06 04:18:27;;;;;;;9.48;5.55;;;;;;;17.00;94.91;101618.09;5017648;28;20626;-70
2022/09/06 04:20:54;;;;;;;12.03;6.30;;;;;;;17.04;94.55;101624.88;5026715;28;20112;-69
2022/09/06 04:23:21;;;;;;;8.52;5.38;;;;;;;17.07;94.10;101630.84;5029592;28;20029;-70
2022/09/06 04:25:48;;;;;;;7.75;5.60;;;;;;;17.00;94.00;101637.47;5029857;28;20108;-69
2022/09/06 04:28:14;;;;;;;7.78;6.22;;;;;;;17.17;93.16;101633.13;5028579;28;20087;-70
2022/09/06 04:30:40;;;;;;;10.07;6.55;;;;;;;17.08;93.04;101626.16;5021037;28;20090;-69
2022/09/06 04:33:05;;;;;;;8.50;7.07;;;;;;;17.00;93.97;101629.16;5027913;28;20037;-69
2022/09/06 04:35:30;;;;;;;15.70;6.90;;;;;;;16.99;94.07;101635.78;5014930;28;20037;-70
2022/09/06 04:37:59;;;;;;;13.37;7.40;;;;;;;17.11;93.47;101636.78;5025983;28;20113;-71
2022/09/06 04:40:25;;;;;;;10.10;7.30;;;;;;;17.03;93.69;101637.03;5030721;28;20037;-70
2022/09/06 04:42:50;;;;;;;12.20;7.30;;;;;;;17.05;93.68;101637.66;5029618;28;20032;-70
2022/09/06 04:45:15;;;;;;;16.37;7.30;;;;;;;16.94;93.55;101638.34;5030035;28;20037;-70
2022/09/06 04:47:41;;;;;;;10.83;7.13;;;;;;;16.90;94.03;101631.53;5019511;28;20040;-70
2022/09/06 04:50:06;;;;;;;9.83;7.07;;;;;;;16.93;93.22;101639.44;5026981;28;20041;-71
2022/09/06 04:52:32;;;;;;;12.40;7.30;;;;;;;16.82;93.82;101638.16;5019004;28;20056;-71
2022/09/06 04:54:57;;;;;;;10.23;7.30;;;;;;;16.73;94.19;101635.88;5027970;28;20032;-70
2022/09/06 04:57:22;;;;;;;10.10;6.30;;;;;;;16.70;94.31;101644.63;5027519;28;20049;-70
2022/09/06 04:59:47;;;;;;;13.40;6.90;;;;;;;16.62;94.36;101647.63;5030609;28;20395;-71
2022/09/06 05:02:13;;;;;;;9.83;6.40;;;;;;;16.58;95.55;101646.34;5014442;28;20145;-71
2022/09/06 05:04:38;;;;;;;10.43;6.20;;;;;;;16.54;94.12;101645.94;5029634;28;20036;-70
2022/09/06 05:07:07;;;;;;;8.60;6.70;;;;;;;16.58;95.01;101640.81;5026695;28;20030;-70
2022/09/06 05:09:32;;;;;;;9.60;7.15;;;;;;;16.59;95.43;101642.53;5029519;28;20045;-70
2022/09/06 05:11:58;;;;;;;12.57;6.67;;;;;;;16.53;95.20;101635.06;5029868;28;20648;-70
2022/09/06 05:14:24;;;;;;;8.77;6.80;;;;;;;16.53;95.15;101629.53;5028918;28;20083;-70
2022/09/06 05:16:50;;;;;;;9.60;6.20;;;;;;;16.51;95.44;101623.38;5026694;28;20041;-70
2022/09/06 05:19:16;;;;;;;12.97;6.67;;;;;;;16.44;95.44;101631.69;5029494;28;20037;-70
2022/09/06 05:21:42;;;;;;;9.68;6.97;;;;;;;16.43;95.69;101638.31;5027834;28;20075;-70
2022/09/06 05:24:07;;;;;;;8.20;6.90;;;;;;;16.46;95.55;101625.94;5012076;28;20477;-70
2022/09/06 05:26:32;;;;;;;10.50;7.50;;;;;;;16.43;95.64;101624.47;5016961;28;20030;-70
2022/09/06 05:28:58;;;;;;;10.73;6.60;;;;;;;16.52;96.70;101620.41;5029172;28;20033;-70
2022/09/06 05:31:28;;;;;;;9.97;7.27;;;;;;;16.53;96.17;101618.47;5028737;28;20033;-70
2022/09/06 05:33:54;;;;;;;12.52;7.70;;;;;;;16.52;95.37;101627.84;5027960;28;20030;-71
2022/09/06 05:36:22;;;;;;;13.90;6.95;;;;;;;16.52;95.51;101631.47;5026617;28;20665;-70
2022/09/06 05:38:48;;;;;;;14.15;7.10;;;;;;;16.51;96.06;101628.91;5020728;28;20143;-70
2022/09/06 05:41:13;;;;;;;8.73;6.93;;;;;;;16.55;95.14;101617.19;5026170;28;20043;-70
2022/09/06 05:43:39;;;;;;;7.77;6.97;;;;;;;16.64;96.41;101623.38;5013006;28;20403;-70
2022/09/06 05:46:04;;;;;;;12.53;7.20;;;;;;;16.65;96.48;101620.34;5021447;28;20088;-70
2022/09/06 05:48:29;;;;;;;15.93;8.00;;;;;;;16.66;96.95;101615.69;5028625;28;20473;-70
2022/09/06 05:51:11;;;;;;;11.30;7.40;;;;;;;16.69;96.48;101612.47;5026553;28;20090;-71
2022/09/06 05:53:40;;;;;;;9.55;7.28;;;;;;;16.73;96.28;101606.28;5021741;28;20083;-70
2022/09/06 05:56:06;;;;;;;11.85;7.63;;;;;;;16.81;96.48;101610.75;5021558;28;20033;-70
2022/09/06 05:58:32;;;;;;;15.30;8.32;;;;;;;16.85;96.04;101598.13;5022477;28;20029;-70
2022/09/06 06:01:16;;;;;;;13.30;7.97;;;;;;;16.93;96.11;101603.44;5027247;28;20496;-70
2022/09/06 06:03:42;;;;;;;9.75;7.43;;;;;;;16.92;95.78;101605.34;5020304;28;20060;-70
2022/09/06 06:06:07;;;;;;;16.90;8.40;;;;;;;16.90;95.78;101612.16;5020785;28;20037;-71
2022/09/06 06:08:34;;;;;;;14.10;8.07;;;;;;;16.98;95.06;101609.16;5026750;28;20450;-71
2022/09/06 06:11:00;;;;;;;16.23;7.93;;;;;;;17.03;95.86;101612.13;5022305;28;20033;-71
2022/09/06 06:13:28;;;;;;;13.02;7.95;;;;;;;17.02;95.89;101602.13;5029079;28;20037;-71
2022/09/06 06:15:54;;;;;;;16.15;8.27;;;;;;;17.07;95.08;101602.31;5025737;28;20033;-71
2022/09/06 06:18:19;;;;;;;13.80;8.90;;;;;;;17.10;95.45;101594.41;5026544;28;20044;-70
2022/09/06 06:20:44;;;;;;;15.90;8.53;;;;;;;17.19;95.29;101593.06;5024445;28;20026;-71
2022/09/06 06:23:09;;;;;;;11.67;8.93;;;;;;;17.28;94.78;101596.44;5026461;28;20477;-71
2022/09/06 06:25:35;;;;;;;12.43;8.27;;;;;;;17.36;94.98;101585.09;5027166;28;20033;-71
2022/09/06 06:28:00;;;;;;;11.93;8.73;;;;;;;17.49;94.26;101580.34;5022576;28;20037;-71
2022/09/06 06:30:25;;;;;;;12.07;8.47;;;;;;;17.52;93.71;101573.50;5023633;28;20022;-71
2022/09/06 06:32:51;;;;;;;17.27;9.13;;;;;;;17.59;93.78;101575.13;5027169;28;20037;-71
2022/09/06 06:35:16;;;;;;;11.90;8.37;;;;;;;17.64;93.92;101574.44;5026985;28;20115;-71
2022/09/06 06:37:41;;;;;;;10.27;8.43;;;;;;;17.78;93.17;101576.88;5025507;28;20039;-70
2022/09/06 06:40:07;;;;;;;13.00;7.87;;;;;;;17.80;93.08;101560.91;5031357;28;20091;-70
2022/09/06 06:42:33;;;;;;;9.52;7.88;;;;;;;17.92;92.39;101564.63;5030521;28;20122;-70
2022/09/06 06:44:58;;;;;;;11.03;7.83;;;;;;;18.06;90.93;101568.97;5030518;28;20036;-71
2022/09/06 06:47:23;;;;;;;10.70;7.40;;;;;;;18.10;90.65;101561.03;5030315;28;20037;-71
2022/09/06 06:49:48;;;;;;;10.37;7.33;;;;;;;18.23;90.33;101569.19;5021493;28;20028;-71
2022/09/06 06:52:14;;;;;;;9.53;6.93;;;;;;;18.49;88.97;101566.16;5032697;28;20033;-71
2022/09/06 06:54:40;;;;;;;11.43;7.30;;;;;;;18.47;89.72;101574.72;5030773;28;20029;-70
2022/09/06 06:57:08;;;;;;;11.02;7.25;;;;;;;18.50;89.71;101581.72;5020917;28;20030;-70
2022/09/06 06:59:33;;;;;;;14.23;7.82;;;;;;;18.52;89.66;101593.47;5013144;28;20034;-71
2022/09/06 07:01:58;;;;;;;8.80;7.00;;;;;;;18.67;88.74;101591.16;5026717;28;20033;-71
2022/09/06 07:04:24;;;;;;;11.33;7.97;;;;;;;18.88;87.20;101587.91;5030571;28;20033;-71
2022/09/06 07:06:58;;;;;;;11.73;8.10;;;;;;;19.51;85.67;101589.13;5029241;28;20029;-71
2022/09/06 07:09:23;;;;;;;10.85;7.75;;;;;;;19.87;83.54;101583.41;5018920;28;20091;-70
2022/09/06 07:11:49;;;;;;;14.27;7.53;;;;;;;20.27;81.45;101590.00;5027368;28;20025;-71
2022/09/06 07:14:17;;;;;;;12.73;7.67;;;;;;;20.75;79.55;101576.63;5032065;28;20370;-70
2022/09/06 07:16:43;;;;;;;9.48;6.45;;;;;;;20.79;78.30;101575.88;5016709;28;20331;-71
2022/09/06 07:19:08;;;;;;;14.10;8.00;;;;;;;21.08;78.39;101571.22;5033790;28;20104;-71
2022/09/06 07:21:34;;;;;;;10.83;6.47;;;;;;;21.13;77.65;101568.53;5029637;28;20095;-71
2022/09/06 07:23:59;;;;;;;10.73;6.37;;;;;;;21.50;75.83;101564.22;5031323;28;20052;-71
2022/09/06 07:26:27;;;;;;;7.17;6.17;;;;;;;21.33;76.37;101566.09;5019325;28;20030;-71
2022/09/06 07:28:59;;;;;;;7.45;6.20;;;;;;;21.52;76.05;101567.59;5012298;28;20505;-71
2022/09/06 07:31:25;;;;;;;13.93;6.30;;;;;;;21.29;75.58;101556.59;5025271;28;20025;-71
2022/09/06 07:33:51;;;;;;;9.93;6.45;;;;;;;21.45;76.52;101558.56;5030960;28;20162;-71
2022/09/06 07:36:16;;;;;;;6.37;5.70;;;;;;;21.26;75.55;101563.50;5029088;28;20354;-71
2022/09/06 07:38:41;;;;;;;9.20;6.07;;;;;;;21.23;76.60;101571.53;5031826;28;20477;-70
2022/09/06 07:41:09;;;;;;;10.57;6.07;;;;;;;21.10;76.40;101558.72;5027059;28;20083;-71
2022/09/06 07:43:35;;;;;;;11.55;6.65;;;;;;;21.07;77.32;101558.38;5032215;28;20030;-71
2022/09/06 07:46:06;;;;;;;12.07;6.40;;;;;;;21.25;77.37;101561.81;5028804;28;20048;-71
2022/09/06 07:48:34;;;;;;;8.65;5.85;;;;;;;21.11;77.26;101553.97;5030595;28;20086;-71
2022/09/06 07:51:03;;;;;;;10.55;6.85;;;;;;;21.08;77.94;101571.22;5029224;28;20033;-71
2022/09/06 07:53:29;;;;;;;8.18;6.45;;;;;;;21.00;77.95;101566.88;5030833;28;20026;-71
2022/09/06 07:55:54;;;;;;;8.83;6.80;;;;;;;20.85;77.65;101572.09;5027986;28;20095;-71
2022/09/06 07:58:20;;;;;;;10.97;6.77;;;;;;;20.68;78.04;101573.97;5032011;28;20076;-71
2022/09/06 08:00:45;;;;;;;11.73;7.37;;;;;;;20.57;78.88;101580.41;5027804;28;20112;-71
2022/09/06 08:03:10;;;;;;;9.87;7.73;;;;;;;20.78;79.61;101582.53;5030777;28;20037;-71
2022/09/06 08:05:36;;;;;;;8.33;7.43;;;;;;;20.84;79.04;101584.34;5031185;28;20026;-71
2022/09/06 08:08:02;;;;;;;8.57;7.33;;;;;;;21.03;78.67;101573.91;5018216;28;20030;-71
2022/09/06 08:10:27;;;;;;;9.10;7.37;;;;;;;21.07;78.79;101566.75;5026842;28;20277;-71
2022/09/06 08:12:53;;;;;;;22.63;8.17;;;;;;;21.14;78.42;101564.66;5031168;28;20037;-71
2022/09/06 08:15:19;;;;;;;8.95;7.15;;;;;;;21.33;78.51;101563.31;5028020;28;20499;-71
2022/09/06 08:17:47;;;;;;;11.23;6.45;;;;;;;21.48;75.20;101569.19;5042174;28;20041;-71
2022/09/06 08:20:13;;;;;;;14.55;6.60;;;;;;;21.56;76.55;101574.38;5018013;28;20026;-72
2022/09/06 08:22:38;;;;;;;7.30;6.07;;;;;;;21.69;75.32;101574.94;5020701;28;20033;-71
2022/09/06 08:25:04;;;;;;;14.40;6.50;;;;;;;21.75;74.95;101578.63;5027885;28;20037;-71
2022/09/06 08:27:29;;;;;;;11.03;6.67;;;;;;;21.68;74.31;101577.97;5033216;28;20064;-71
2022/09/06 08:29:54;;;;;;;11.97;6.93;;;;;;;21.70;75.71;101576.59;5036984;28;20041;-71
2022/09/06 08:32:20;;;;;;;15.33;6.97;;;;;;;21.78;75.11;101583.72;5024421;28;20148;-71
2022/09/06 08:34:45;;;;;;;11.67;7.20;;;;;;;21.95;73.39;101592.94;5027666;28;20576;-71
2022/09/06 08:37:10;;;;;;;10.53;6.73;;;;;;;21.89;74.28;101572.47;5028029;28;20033;-71
2022/09/06 08:39:36;;;;;;;11.87;7.13;;;;;;;21.93;74.17;101578.41;5021374;28;20427;-71
2022/09/06 08:42:04;;;;;;;9.97;6.43;;;;;;;22.04;73.24;101578.28;5024769;28;20041;-71
2022/09/06 08:44:38;;;;;;;13.77;7.07;;;;;;;22.18;72.46;101567.63;5011169;28;20038;-71
2022/09/06 08:47:11;;;;;;;7.38;5.60;;;;;;;22.19;72.00;101574.91;5019216;28;20431;-71
2022/09/06 08:49:48;;;;;;;18.00;7.22;;;;;;;22.31;71.27;101561.69;5014879;28;20041;-71
2022/09/06 08:52:36;;;;;;;11.32;6.05;;;;;;;22.36;70.88;101562.59;5028670;28;20091;-71
2022/09/06 08:55:23;;;;;;;11.07;6.07;;;;;;;22.26;71.57;101573.59;5019859;28;20581;-71
2022/09/06 08:58:23;;;;;;;14.88;6.20;;;;;;;22.36;71.75;101575.72;5029768;28;20029;-71
2022/09/06 09:00:57;;;;;;;12.43;5.55;;;;;;;22.54;71.25;101581.03;5028163;28;20397;-71
2022/09/06 09:03:30;;;;;;;9.15;6.13;;;;;;;22.52;72.26;101580.47;5029659;28;20417;-71
2022/09/06 09:05:55;;;;;;;9.93;6.03;;;;;;;22.62;70.64;101586.19;5028722;28;20037;-71
2022/09/06 09:08:30;;;;;;;9.53;6.37;;;;;;;22.72;70.43;101580.75;5029656;28;20087;-71
2022/09/06 09:11:06;;;;;;;10.25;6.22;;;;;;;22.78;70.30;101585.31;5027994;28;20049;-71
2022/09/06 09:13:42;;;;;;;9.43;6.72;;;;;;;22.94;68.96;101587.19;5030750;28;20056;-71
2022/09/06 09:16:07;;;;;;;9.23;6.88;;;;;;;22.94;69.22;101587.19;5028696;28;20038;-71
2022/09/06 09:18:37;;;;;;;14.27;7.27;;;;;;;23.13;69.23;101588.53;5025255;28;20040;-71
2022/09/06 09:21:03;;;;;;;11.77;6.00;;;;;;;23.11;69.07;101591.56;5019510;28;20485;-71
2022/09/06 09:23:29;;;;;;;14.40;6.78;;;;;;;23.18;68.94;101581.09;5023001;28;20032;-71
2022/09/06 09:25:58;;;;;;;;;;;;;;;23.32;67.85;101584.31;5022234;28;20033;-71
2022/09/06 09:28:24;;;;;;;11.07;7.15;;;;;;;23.46;69.17;101583.63;5025973;28;20292;-71
2022/09/06 09:30:54;;;;;;;;;;;;;;;23.41;66.63;101591.97;5017454;28;20539;-71
2022/09/06 09:33:34;;;;;;;12.25;7.07;;;;;;;23.52;67.12;101587.34;5021112;28;20336;-71
2022/09/06 09:36:05;;;;;;;9.02;6.90;;;;;;;23.56;67.41;101588.47;5027418;28;20044;-70
2022/09/06 09:38:39;;;;;;;15.48;6.97;;;;;;;23.39;68.16;101583.00;5029576;28;20076;-71
2022/09/06 09:41:06;;;;;;;10.02;6.70;;;;;;;23.62;67.96;101585.47;5028487;28;20144;-71
2022/09/06 09:43:36;;;;;;;10.38;6.47;;;;;;;23.98;67.79;101586.66;5025351;28;20459;-71
2022/09/06 09:46:23;;;;;;;10.95;6.82;;;;;;;24.21;65.97;101586.25;5017051;28;20038;-70
2022/09/06 09:49:08;;;;;;;9.82;6.55;;;;;;;24.39;64.83;101588.66;5028559;28;20030;-71
2022/09/06 09:51:37;;;;;;;9.52;7.00;;;;;;;24.24;65.33;101592.19;5028466;28;20037;-70
2022/09/06 09:54:06;;;;;;;10.45;6.90;;;;;;;24.50;64.38;101601.63;5030056;28;20030;-71
2022/09/06 09:56:40;;;;;;;11.32;6.68;;;;;;;24.40;64.43;101591.19;5027746;28;20086;-71
2022/09/06 09:59:19;;;;;;;10.85;5.82;;;;;;;24.47;63.85;101588.13;5029095;28;20113;-71
2022/09/06 10:01:45;;;;;;;11.80;6.50;;;;;;;24.29;64.28;101592.25;5025735;28;20030;-71
2022/09/06 10:04:18;;;;;;;12.57;6.83;;;;;;;24.23;63.34;101595.25;5028622;28;20512;-71
2022/09/06 10:06:43;;;;;;;9.18;6.25;;;;;;;24.64;63.36;101591.66;5020808;28;20025;-71
2022/09/06 10:09:19;;;;;;;8.93;5.93;;;;;;;24.73;63.65;101595.59;5028783;28;20477;-71
2022/09/06 10:11:53;;;;;;;7.88;5.28;;;;;;;24.86;62.98;101601.56;5027395;28;20545;-70
2022/09/06 10:14:32;;;;;;;8.88;5.35;;;;;;;25.16;62.49;101600.84;5033186;28;20350;-71
2022/09/06 10:16:58;;;;;;;13.57;5.32;;;;;;;25.21;62.85;101595.25;5030712;28;20108;-70
2022/09/06 10:19:40;;;;;;;7.45;4.88;;;;;;;25.21;61.45;101604.53;5032017;28;20037;-71
2022/09/06 10:22:22;;;;;;;6.80;4.18;;;;;;;25.33;60.90;101607.09;5031375;28;20034;-71
2022/09/06 10:25:11;;;;;;;6.75;3.97;;;;;;;25.12;60.39;101599.72;5028067;28;20033;-70
2022/09/06 10:27:49;;;;;;;7.03;4.03;;;;;;;25.24;60.39;101617.97;5029321;28;20451;-71
2022/09/06 10:30:14;;;;;;;9.50;4.35;;;;;;;25.39;60.80;101603.22;5032879;28;20037;-70
2022/09/06 10:33:26;;;;;;;11.13;4.67;;;;;;;25.64;60.80;101606.06;5032192;28;20055;-71
2022/09/06 10:35:51;;;;;;;12.38;5.30;;;;;;;25.60;60.22;101611.38;5000963;28;20034;-71
2022/09/06 10:38:31;;;;;;;12.00;5.22;;;;;;;25.32;60.88;101597.84;5028666;28;20037;-70
2022/09/06 10:41:25;;;;;;;6.22;5.00;;;;;;;25.28;61.03;101619.16;5030107;28;20029;-71
2022/09/06 10:44:21;;;;;;;12.13;5.18;;;;;;;25.57;61.14;101617.56;5032447;28;20044;-70
2022/09/06 10:46:54;;;;;;;11.77;4.57;;;;;;;25.56;60.98;101617.84;5025058;28;20156;-71
2022/09/06 10:49:20;;;;;;;9.00;5.07;;;;;;;25.89;60.22;101614.53;5022459;28;20147;-71
2022/09/06 10:51:55;;;;;;;8.33;4.50;;;;;;;26.13;60.94;101618.47;5029924;28;20025;-71
2022/09/06 10:54:22;;;;;;;10.70;5.78;;;;;;;25.83;59.72;101627.69;5030758;28;20033;-71
2022/09/06 10:57:26;;;;;;;13.15;6.32;;;;;;;25.75;59.40;101628.25;5028734;28;20033;-71
2022/09/06 10:59:55;;;;;;;13.68;7.07;;;;;;;25.78;60.39;101624.06;4982369;28;20060;-71
2022/09/06 11:02:53;;;;;;;15.82;7.25;;;;;;;25.89;60.77;101615.38;5027152;28;20034;-71
2022/09/06 11:05:31;;;;;;;;;;;;;;;25.95;60.66;101613.44;5032508;28;20033;-71
2022/09/06 11:08:01;;;;;;;11.27;7.05;;;;;;;25.89;60.13;101615.38;5026795;28;20311;-70
2022/09/06 11:10:30;;;;;;;15.23;7.78;;;;;;;26.45;60.06;101613.38;5029991;28;20037;-70
2022/09/06 11:13:13;;;;;;;8.55;6.93;;;;;;;26.26;58.16;101610.31;5027668;28;20037;-70
2022/09/06 11:15:57;;;;;;;14.07;7.30;;;;;;;26.40;59.00;101613.44;5031058;28;20100;-70
2022/09/06 11:18:50;;;;;;;15.88;7.22;;;;;;;26.54;58.73;101609.75;5029780;28;20055;-71
2022/09/06 11:21:24;;;;;;;9.93;6.35;;;;;;;26.50;57.29;101603.00;5031065;28;20122;-71
2022/09/06 11:24:09;;;;;;;9.43;6.65;;;;;;;26.67;56.36;101611.97;5030682;28;20112;-70
2022/09/06 11:27:15;;;;;;;13.48;7.30;;;;;;;26.61;56.02;101621.56;5029127;28;20021;-71
2022/09/06 11:29:45;;;;;;;13.27;7.75;;;;;;;26.41;56.81;101623.53;5018676;28;20038;-70
2022/09/06 11:32:43;;;;;;;10.13;6.47;;;;;;;26.77;56.35;101613.91;5026371;28;20034;-71
2022/09/06 11:35:19;;;;;;;11.52;6.50;;;;;;;26.67;56.49;101626.03;5025624;28;20033;-70
2022/09/06 11:37:49;;;;;;;12.45;7.43;;;;;;;26.78;55.70;101626.88;5029796;28;20440;-70